sensor_id;sensor_type;location;lat;lon;timestamp;P1;durP1;ratioP1;P2;durP2;ratioP2
60714;SDS011;46564;53.096;8.246;2023-07-22T00:01:29;8.80;;;4.20;;
60714;SDS011;46564;53.096;8.246;2023-07-22T00:06:31;10.15;;;4.50;;
60714;SDS011;46564;53.096;8.246;2023-07-22T00:11:32;10.32;;;5.07;;
60714;SDS011;46564;53.096;8.246;2023-07-22T00:16:34;13.45;;;4.43;;
60714;SDS011;46564;53.096;8.246;2023-07-22T00:21:35;9.93;;;4.40;;
60714;SDS011;46564;53.096;8.246;2023-07-22T00:26:37;11.00;;;4.18;;
60714;SDS011;46564;53.096;8.246;2023-07-22T00:31:38;10.98;;;4.15;;
60714;SDS011;46564;53.096;8.246;2023-07-22T00:36:40;12.88;;;3.92;;
60714;SDS011;46564;53.096;8.246;2023-07-22T00:41:41;11.88;;;4.72;;
60714;SDS011;46564;53.096;8.246;2023-07-22T00:46:43;15.85;;;4.38;;
60714;SDS011;46564;53.096;8.246;2023-07-22T00:51:45;11.32;;;3.88;;
60714;SDS011;46564;53.096;8.246;2023-07-22T00:56:46;13.20;;;5.18;;
60714;SDS011;46564;53.096;8.246;2023-07-22T01:01:48;10.73;;;4.32;;
60714;SDS011;46564;53.096;8.246;2023-07-22T01:06:50;15.07;;;4.15;;
60714;SDS011;46564;53.096;8.246;2023-07-22T01:11:52;13.20;;;4.35;;
60714;SDS011;46564;53.096;8.246;2023-07-22T01:16:54;14.63;;;5.25;;
60714;SDS011;46564;53.096;8.246;2023-07-22T01:21:56;11.52;;;4.95;;
60714;SDS011;46564;53.096;8.246;2023-07-22T01:27:00;11.88;;;4.40;;
60714;SDS011;46564;53.096;8.246;2023-07-22T01:32:02;11.13;;;3.95;;
60714;SDS011;46564;53.096;8.246;2023-07-22T01:37:03;11.82;;;4.50;;
60714;SDS011;46564;53.096;8.246;2023-07-22T01:42:05;11.05;;;4.00;;
60714;SDS011;46564;53.096;8.246;2023-07-22T01:47:06;9.95;;;4.70;;
60714;SDS011;46564;53.096;8.246;2023-07-22T01:52:09;12.50;;;4.45;;
60714;SDS011;46564;53.096;8.246;2023-07-22T01:57:10;12.27;;;4.25;;
60714;SDS011;46564;53.096;8.246;2023-07-22T02:02:12;17.73;;;4.57;;
60714;SDS011;46564;53.096;8.246;2023-07-22T02:07:14;13.93;;;4.75;;
60714;SDS011;46564;53.096;8.246;2023-07-22T02:12:15;10.65;;;4.47;;
60714;SDS011;46564;53.096;8.246;2023-07-22T02:17:17;12.63;;;4.40;;
60714;SDS011;46564;53.096;8.246;2023-07-22T02:22:18;12.02;;;4.45;;
60714;SDS011;46564;53.096;8.246;2023-07-22T02:27:20;11.50;;;4.18;;
60714;SDS011;46564;53.096;8.246;2023-07-22T02:32:21;13.25;;;4.70;;
60714;SDS011;46564;53.096;8.246;2023-07-22T02:37:23;12.55;;;4.78;;
60714;SDS011;46564;53.096;8.246;2023-07-22T02:42:24;14.25;;;4.43;;
60714;SDS011;46564;53.096;8.246;2023-07-22T02:47:25;15.75;;;4.70;;
60714;SDS011;46564;53.096;8.246;2023-07-22T02:52:27;13.55;;;5.03;;
60714;SDS011;46564;53.096;8.246;2023-07-22T02:57:28;14.38;;;4.53;;
60714;SDS011;46564;53.096;8.246;2023-07-22T03:02:30;19.20;;;5.43;;
60714;SDS011;46564;53.096;8.246;2023-07-22T03:07:32;12.27;;;4.43;;
60714;SDS011;46564;53.096;8.246;2023-07-22T03:12:33;13.43;;;5.25;;
60714;SDS011;46564;53.096;8.246;2023-07-22T03:17:35;17.17;;;4.55;;
60714;SDS011;46564;53.096;8.246;2023-07-22T03:22:37;12.15;;;4.13;;
60714;SDS011;46564;53.096;8.246;2023-07-22T03:27:51;11.27;;;4.43;;
60714;SDS011;46564;53.096;8.246;2023-07-22T03:32:53;17.35;;;4.50;;
60714;SDS011;46564;53.096;8.246;2023-07-22T03:37:55;11.38;;;4.20;;
60714;SDS011;46564;53.096;8.246;2023-07-22T03:42:56;13.07;;;4.80;;
60714;SDS011;46564;53.096;8.246;2023-07-22T03:47:59;15.15;;;4.53;;
60714;SDS011;46564;53.096;8.246;2023-07-22T03:53:01;17.33;;;4.53;;
60714;SDS011;46564;53.096;8.246;2023-07-22T03:58:02;13.90;;;5.13;;
60714;SDS011;46564;53.096;8.246;2023-07-22T04:03:04;13.10;;;4.50;;
60714;SDS011;46564;53.096;8.246;2023-07-22T04:08:06;14.13;;;4.47;;
60714;SDS011;46564;53.096;8.246;2023-07-22T04:13:07;12.70;;;4.65;;
60714;SDS011;46564;53.096;8.246;2023-07-22T04:18:09;16.35;;;4.82;;
60714;SDS011;46564;53.096;8.246;2023-07-22T04:23:11;15.93;;;5.55;;
60714;SDS011;46564;53.096;8.246;2023-07-22T04:28:13;15.52;;;5.03;;
60714;SDS011;46564;53.096;8.246;2023-07-22T04:33:14;12.63;;;5.18;;
60714;SDS011;46564;53.096;8.246;2023-07-22T04:38:16;13.40;;;5.25;;
60714;SDS011;46564;53.096;8.246;2023-07-22T04:43:17;14.98;;;4.80;;
60714;SDS011;46564;53.096;8.246;2023-07-22T04:48:23;10.75;;;4.53;;
60714;SDS011;46564;53.096;8.246;2023-07-22T04:53:24;16.90;;;5.22;;
60714;SDS011;46564;53.096;8.246;2023-07-22T04:58:25;14.90;;;4.72;;
60714;SDS011;46564;53.096;8.246;2023-07-22T05:03:27;13.88;;;5.13;;
60714;SDS011;46564;53.096;8.246;2023-07-22T05:08:29;19.05;;;5.93;;
60714;SDS011;46564;53.096;8.246;2023-07-22T05:13:30;13.13;;;4.88;;
60714;SDS011;46564;53.096;8.246;2023-07-22T05:18:32;15.30;;;5.78;;
60714;SDS011;46564;53.096;8.246;2023-07-22T05:23:33;11.63;;;4.97;;
60714;SDS011;46564;53.096;8.246;2023-07-22T05:28:34;12.32;;;4.85;;
60714;SDS011;46564;53.096;8.246;2023-07-22T05:33:36;15.55;;;4.63;;
60714;SDS011;46564;53.096;8.246;2023-07-22T05:38:37;17.00;;;5.03;;
60714;SDS011;46564;53.096;8.246;2023-07-22T05:43:39;11.85;;;4.47;;
60714;SDS011;46564;53.096;8.246;2023-07-22T05:48:40;10.68;;;4.50;;
60714;SDS011;46564;53.096;8.246;2023-07-22T05:53:42;13.98;;;5.28;;
60714;SDS011;46564;53.096;8.246;2023-07-22T05:58:43;14.60;;;5.18;;
60714;SDS011;46564;53.096;8.246;2023-07-22T06:03:45;11.85;;;4.60;;
60714;SDS011;46564;53.096;8.246;2023-07-22T06:08:46;12.20;;;4.40;;
60714;SDS011;46564;53.096;8.246;2023-07-22T06:13:48;14.95;;;4.95;;
60714;SDS011;46564;53.096;8.246;2023-07-22T06:18:49;11.57;;;4.78;;
60714;SDS011;46564;53.096;8.246;2023-07-22T06:23:51;14.15;;;4.57;;
60714;SDS011;46564;53.096;8.246;2023-07-22T06:28:52;10.90;;;4.72;;
60714;SDS011;46564;53.096;8.246;2023-07-22T06:33:53;10.77;;;3.78;;
60714;SDS011;46564;53.096;8.246;2023-07-22T06:38:55;10.23;;;3.92;;
60714;SDS011;46564;53.096;8.246;2023-07-22T06:43:56;11.30;;;4.35;;
60714;SDS011;46564;53.096;8.246;2023-07-22T06:48:58;10.43;;;4.15;;
60714;SDS011;46564;53.096;8.246;2023-07-22T06:54:01;11.85;;;4.60;;
60714;SDS011;46564;53.096;8.246;2023-07-22T06:59:03;10.35;;;3.85;;
60714;SDS011;46564;53.096;8.246;2023-07-22T07:04:05;12.10;;;4.03;;
60714;SDS011;46564;53.096;8.246;2023-07-22T07:09:07;8.68;;;3.72;;
60714;SDS011;46564;53.096;8.246;2023-07-22T07:14:08;10.02;;;3.88;;
60714;SDS011;46564;53.096;8.246;2023-07-22T07:19:10;10.40;;;3.55;;
60714;SDS011;46564;53.096;8.246;2023-07-22T07:24:11;7.07;;;2.80;;
60714;SDS011;46564;53.096;8.246;2023-07-22T07:29:13;8.45;;;3.08;;
60714;SDS011;46564;53.096;8.246;2023-07-22T07:34:28;5.75;;;2.08;;
60714;SDS011;46564;53.096;8.246;2023-07-22T07:39:29;7.47;;;2.80;;
60714;SDS011;46564;53.096;8.246;2023-07-22T07:44:31;8.07;;;3.20;;
60714;SDS011;46564;53.096;8.246;2023-07-22T07:49:33;7.28;;;2.35;;
60714;SDS011;46564;53.096;8.246;2023-07-22T07:54:35;4.82;;;1.80;;
60714;SDS011;46564;53.096;8.246;2023-07-22T07:59:36;8.85;;;2.60;;
60714;SDS011;46564;53.096;8.246;2023-07-22T08:04:39;8.48;;;2.97;;
60714;SDS011;46564;53.096;8.246;2023-07-22T08:09:41;11.45;;;3.08;;
60714;SDS011;46564;53.096;8.246;2023-07-22T08:14:42;9.10;;;3.45;;
60714;SDS011;46564;53.096;8.246;2023-07-22T08:19:44;13.18;;;3.97;;
60714;SDS011;46564;53.096;8.246;2023-07-22T08:24:45;11.80;;;4.85;;
60714;SDS011;46564;53.096;8.246;2023-07-22T08:29:50;11.30;;;5.22;;
60714;SDS011;46564;53.096;8.246;2023-07-22T08:34:51;11.57;;;5.00;;
60714;SDS011;46564;53.096;8.246;2023-07-22T08:39:53;15.65;;;5.20;;
60714;SDS011;46564;53.096;8.246;2023-07-22T08:44:56;11.85;;;5.07;;
60714;SDS011;46564;53.096;8.246;2023-07-22T08:50:01;11.15;;;4.60;;
60714;SDS011;46564;53.096;8.246;2023-07-22T08:55:06;14.43;;;5.13;;
60714;SDS011;46564;53.096;8.246;2023-07-22T09:00:08;12.70;;;5.07;;
60714;SDS011;46564;53.096;8.246;2023-07-22T09:05:11;12.25;;;5.75;;
60714;SDS011;46564;53.096;8.246;2023-07-22T09:10:12;10.90;;;5.40;;
60714;SDS011;46564;53.096;8.246;2023-07-22T09:15:15;13.43;;;5.20;;
60714;SDS011;46564;53.096;8.246;2023-07-22T09:20:17;15.13;;;6.05;;
60714;SDS011;46564;53.096;8.246;2023-07-22T09:25:24;15.02;;;6.00;;
60714;SDS011;46564;53.096;8.246;2023-07-22T09:30:30;13.27;;;5.88;;
60714;SDS011;46564;53.096;8.246;2023-07-22T09:35:43;11.95;;;5.03;;
60714;SDS011;46564;53.096;8.246;2023-07-22T09:40:46;12.82;;;4.78;;
60714;SDS011;46564;53.096;8.246;2023-07-22T09:45:48;11.50;;;4.57;;
60714;SDS011;46564;53.096;8.246;2023-07-22T09:50:56;11.40;;;4.30;;
60714;SDS011;46564;53.096;8.246;2023-07-22T09:56:02;11.03;;;4.40;;
60714;SDS011;46564;53.096;8.246;2023-07-22T10:01:07;9.83;;;4.10;;
60714;SDS011;46564;53.096;8.246;2023-07-22T10:06:09;9.32;;;4.10;;
60714;SDS011;46564;53.096;8.246;2023-07-22T10:11:11;7.50;;;3.58;;
60714;SDS011;46564;53.096;8.246;2023-07-22T10:16:15;7.90;;;3.53;;
60714;SDS011;46564;53.096;8.246;2023-07-22T10:21:18;10.95;;;3.88;;
60714;SDS011;46564;53.096;8.246;2023-07-22T10:26:20;11.55;;;3.90;;
60714;SDS011;46564;53.096;8.246;2023-07-22T10:31:41;8.38;;;3.78;;
60714;SDS011;46564;53.096;8.246;2023-07-22T10:36:42;10.77;;;4.05;;
60714;SDS011;46564;53.096;8.246;2023-07-22T10:41:46;10.10;;;3.63;;
60714;SDS011;46564;53.096;8.246;2023-07-22T10:46:54;7.65;;;3.35;;
60714;SDS011;46564;53.096;8.246;2023-07-22T10:51:58;11.27;;;4.00;;
60714;SDS011;46564;53.096;8.246;2023-07-22T10:57:03;9.82;;;3.70;;
60714;SDS011;46564;53.096;8.246;2023-07-22T11:02:07;9.73;;;3.80;;
60714;SDS011;46564;53.096;8.246;2023-07-22T11:07:08;7.50;;;2.95;;
60714;SDS011;46564;53.096;8.246;2023-07-22T11:12:13;9.73;;;4.13;;
60714;SDS011;46564;53.096;8.246;2023-07-22T11:17:27;8.68;;;3.85;;
60714;SDS011;46564;53.096;8.246;2023-07-22T11:22:30;10.05;;;3.72;;
60714;SDS011;46564;53.096;8.246;2023-07-22T11:27:31;10.13;;;4.32;;
60714;SDS011;46564;53.096;8.246;2023-07-22T11:32:33;8.52;;;4.00;;
60714;SDS011;46564;53.096;8.246;2023-07-22T11:37:35;12.60;;;3.75;;
60714;SDS011;46564;53.096;8.246;2023-07-22T11:42:36;16.40;;;5.43;;
60714;SDS011;46564;53.096;8.246;2023-07-22T11:47:39;9.38;;;4.72;;
60714;SDS011;46564;53.096;8.246;2023-07-22T11:52:40;12.88;;;5.65;;
60714;SDS011;46564;53.096;8.246;2023-07-22T11:57:42;13.23;;;5.75;;
60714;SDS011;46564;53.096;8.246;2023-07-22T12:02:52;10.85;;;5.72;;
60714;SDS011;46564;53.096;8.246;2023-07-22T12:07:54;13.13;;;6.03;;
60714;SDS011;46564;53.096;8.246;2023-07-22T12:12:55;11.60;;;5.95;;
60714;SDS011;46564;53.096;8.246;2023-07-22T12:18:02;10.38;;;5.20;;
60714;SDS011;46564;53.096;8.246;2023-07-22T12:23:03;11.57;;;5.10;;
60714;SDS011;46564;53.096;8.246;2023-07-22T12:28:05;12.65;;;5.18;;
60714;SDS011;46564;53.096;8.246;2023-07-22T12:33:06;11.77;;;5.05;;
60714;SDS011;46564;53.096;8.246;2023-07-22T12:38:08;12.68;;;5.22;;
60714;SDS011;46564;53.096;8.246;2023-07-22T12:43:09;10.75;;;4.75;;
60714;SDS011;46564;53.096;8.246;2023-07-22T12:48:11;10.20;;;5.22;;
60714;SDS011;46564;53.096;8.246;2023-07-22T12:53:12;11.48;;;5.15;;
60714;SDS011;46564;53.096;8.246;2023-07-22T12:58:14;10.55;;;5.32;;
60714;SDS011;46564;53.096;8.246;2023-07-22T13:03:18;9.95;;;4.88;;
60714;SDS011;46564;53.096;8.246;2023-07-22T13:08:20;11.50;;;5.07;;
60714;SDS011;46564;53.096;8.246;2023-07-22T13:13:21;12.15;;;5.50;;
60714;SDS011;46564;53.096;8.246;2023-07-22T13:18:23;10.73;;;4.90;;
60714;SDS011;46564;53.096;8.246;2023-07-22T13:23:24;11.60;;;5.72;;
60714;SDS011;46564;53.096;8.246;2023-07-22T13:28:26;10.95;;;6.03;;
60714;SDS011;46564;53.096;8.246;2023-07-22T13:33:27;11.70;;;5.28;;
60714;SDS011;46564;53.096;8.246;2023-07-22T13:38:29;12.00;;;5.35;;
60714;SDS011;46564;53.096;8.246;2023-07-22T13:43:30;10.00;;;4.93;;
60714;SDS011;46564;53.096;8.246;2023-07-22T13:48:32;9.70;;;5.30;;
60714;SDS011;46564;53.096;8.246;2023-07-22T13:53:33;10.90;;;5.10;;
60714;SDS011;46564;53.096;8.246;2023-07-22T13:58:35;9.60;;;4.80;;
60714;SDS011;46564;53.096;8.246;2023-07-22T14:03:36;11.27;;;5.78;;
60714;SDS011;46564;53.096;8.246;2023-07-22T14:08:38;10.00;;;5.65;;
60714;SDS011;46564;53.096;8.246;2023-07-22T14:13:39;11.38;;;5.60;;
60714;SDS011;46564;53.096;8.246;2023-07-22T14:18:41;12.45;;;5.85;;
60714;SDS011;46564;53.096;8.246;2023-07-22T14:23:45;12.00;;;6.68;;
60714;SDS011;46564;53.096;8.246;2023-07-22T14:28:47;11.95;;;5.97;;
60714;SDS011;46564;53.096;8.246;2023-07-22T14:33:48;12.90;;;6.10;;
60714;SDS011;46564;53.096;8.246;2023-07-22T14:38:50;11.88;;;5.82;;
60714;SDS011;46564;53.096;8.246;2023-07-22T14:43:51;9.10;;;4.75;;
60714;SDS011;46564;53.096;8.246;2023-07-22T14:48:53;9.13;;;4.75;;
60714;SDS011;46564;53.096;8.246;2023-07-22T14:53:54;8.95;;;4.53;;
60714;SDS011;46564;53.096;8.246;2023-07-22T14:58:56;9.90;;;4.80;;
60714;SDS011;46564;53.096;8.246;2023-07-22T15:03:57;8.05;;;3.72;;
60714;SDS011;46564;53.096;8.246;2023-07-22T15:08:59;9.45;;;4.20;;
60714;SDS011;46564;53.096;8.246;2023-07-22T15:14:05;10.27;;;4.57;;
60714;SDS011;46564;53.096;8.246;2023-07-22T15:19:07;9.68;;;4.15;;
60714;SDS011;46564;53.096;8.246;2023-07-22T15:24:08;9.13;;;3.85;;
60714;SDS011;46564;53.096;8.246;2023-07-22T15:29:10;7.43;;;3.85;;
60714;SDS011;46564;53.096;8.246;2023-07-22T15:34:11;7.65;;;4.00;;
60714;SDS011;46564;53.096;8.246;2023-07-22T15:39:13;10.70;;;3.95;;
60714;SDS011;46564;53.096;8.246;2023-07-22T15:44:14;8.45;;;4.40;;
60714;SDS011;46564;53.096;8.246;2023-07-22T15:49:16;7.53;;;3.80;;
60714;SDS011;46564;53.096;8.246;2023-07-22T15:54:17;8.57;;;3.85;;
60714;SDS011;46564;53.096;8.246;2023-07-22T15:59:19;12.02;;;4.60;;
60714;SDS011;46564;53.096;8.246;2023-07-22T16:04:20;10.93;;;5.07;;
60714;SDS011;46564;53.096;8.246;2023-07-22T16:09:22;8.52;;;4.55;;
60714;SDS011;46564;53.096;8.246;2023-07-22T16:14:23;9.27;;;4.78;;
60714;SDS011;46564;53.096;8.246;2023-07-22T16:19:25;11.98;;;5.65;;
60714;SDS011;46564;53.096;8.246;2023-07-22T16:24:26;12.43;;;5.93;;
60714;SDS011;46564;53.096;8.246;2023-07-22T16:29:28;10.63;;;5.80;;
60714;SDS011;46564;53.096;8.246;2023-07-22T16:34:29;12.02;;;5.57;;
60714;SDS011;46564;53.096;8.246;2023-07-22T16:39:31;13.57;;;6.35;;
60714;SDS011;46564;53.096;8.246;2023-07-22T16:44:32;13.10;;;6.45;;
60714;SDS011;46564;53.096;8.246;2023-07-22T16:49:34;13.88;;;6.88;;
60714;SDS011;46564;53.096;8.246;2023-07-22T16:54:35;14.70;;;7.18;;
60714;SDS011;46564;53.096;8.246;2023-07-22T16:59:36;12.00;;;6.53;;
60714;SDS011;46564;53.096;8.246;2023-07-22T17:04:38;12.35;;;6.10;;
60714;SDS011;46564;53.096;8.246;2023-07-22T17:09:39;15.43;;;7.38;;
60714;SDS011;46564;53.096;8.246;2023-07-22T17:14:41;19.10;;;7.30;;
60714;SDS011;46564;53.096;8.246;2023-07-22T17:19:42;15.20;;;7.50;;
60714;SDS011;46564;53.096;8.246;2023-07-22T17:24:43;14.07;;;6.95;;
60714;SDS011;46564;53.096;8.246;2023-07-22T17:29:45;12.13;;;7.35;;
60714;SDS011;46564;53.096;8.246;2023-07-22T17:34:46;12.70;;;6.90;;
60714;SDS011;46564;53.096;8.246;2023-07-22T17:39:48;12.57;;;6.97;;
60714;SDS011;46564;53.096;8.246;2023-07-22T17:44:49;20.75;;;7.55;;
60714;SDS011;46564;53.096;8.246;2023-07-22T17:49:51;12.57;;;7.20;;
60714;SDS011;46564;53.096;8.246;2023-07-22T17:54:52;15.05;;;8.32;;
60714;SDS011;46564;53.096;8.246;2023-07-22T17:59:54;13.40;;;7.85;;
60714;SDS011;46564;53.096;8.246;2023-07-22T18:04:55;13.07;;;7.45;;
60714;SDS011;46564;53.096;8.246;2023-07-22T18:09:57;13.77;;;7.18;;
60714;SDS011;46564;53.096;8.246;2023-07-22T18:14:58;13.20;;;7.90;;
60714;SDS011;46564;53.096;8.246;2023-07-22T18:20:00;12.65;;;7.68;;
60714;SDS011;46564;53.096;8.246;2023-07-22T18:25:02;14.85;;;8.98;;
60714;SDS011;46564;53.096;8.246;2023-07-22T18:30:04;16.38;;;9.48;;
60714;SDS011;46564;53.096;8.246;2023-07-22T18:35:06;19.23;;;9.65;;
60714;SDS011;46564;53.096;8.246;2023-07-22T18:40:08;16.45;;;8.98;;
60714;SDS011;46564;53.096;8.246;2023-07-22T18:45:10;15.30;;;8.00;;
60714;SDS011;46564;53.096;8.246;2023-07-22T18:50:11;13.93;;;8.30;;
60714;SDS011;46564;53.096;8.246;2023-07-22T18:55:13;17.38;;;10.57;;
60714;SDS011;46564;53.096;8.246;2023-07-22T19:00:14;16.95;;;9.95;;
60714;SDS011;46564;53.096;8.246;2023-07-22T19:05:16;21.08;;;12.25;;
60714;SDS011;46564;53.096;8.246;2023-07-22T19:10:17;16.40;;;8.77;;
60714;SDS011;46564;53.096;8.246;2023-07-22T19:15:19;12.73;;;8.05;;
60714;SDS011;46564;53.096;8.246;2023-07-22T19:20:21;14.80;;;9.13;;
60714;SDS011;46564;53.096;8.246;2023-07-22T19:25:22;16.40;;;7.97;;
60714;SDS011;46564;53.096;8.246;2023-07-22T19:30:24;15.57;;;8.32;;
60714;SDS011;46564;53.096;8.246;2023-07-22T19:35:25;18.77;;;8.95;;
60714;SDS011;46564;53.096;8.246;2023-07-22T19:40:30;16.95;;;8.50;;
60714;SDS011;46564;53.096;8.246;2023-07-22T19:45:32;16.63;;;9.02;;
60714;SDS011;46564;53.096;8.246;2023-07-22T19:50:33;14.63;;;9.18;;
60714;SDS011;46564;53.096;8.246;2023-07-22T19:55:34;16.77;;;8.63;;
60714;SDS011;46564;53.096;8.246;2023-07-22T20:00:36;13.15;;;8.68;;
60714;SDS011;46564;53.096;8.246;2023-07-22T20:05:38;14.65;;;9.38;;
60714;SDS011;46564;53.096;8.246;2023-07-22T20:10:39;14.88;;;8.63;;
60714;SDS011;46564;53.096;8.246;2023-07-22T20:15:41;14.73;;;8.40;;
60714;SDS011;46564;53.096;8.246;2023-07-22T20:20:45;15.63;;;8.20;;
60714;SDS011;46564;53.096;8.246;2023-07-22T20:25:47;14.82;;;9.07;;
60714;SDS011;46564;53.096;8.246;2023-07-22T20:30:48;18.63;;;9.73;;
60714;SDS011;46564;53.096;8.246;2023-07-22T20:35:53;15.25;;;9.07;;
60714;SDS011;46564;53.096;8.246;2023-07-22T20:40:55;18.02;;;10.27;;
60714;SDS011;46564;53.096;8.246;2023-07-22T20:46:00;16.52;;;10.18;;
60714;SDS011;46564;53.096;8.246;2023-07-22T20:51:03;16.88;;;10.75;;
60714;SDS011;46564;53.096;8.246;2023-07-22T20:56:04;20.20;;;10.82;;
60714;SDS011;46564;53.096;8.246;2023-07-22T21:01:06;15.63;;;10.13;;
60714;SDS011;46564;53.096;8.246;2023-07-22T21:06:07;16.35;;;10.15;;
60714;SDS011;46564;53.096;8.246;2023-07-22T21:11:09;17.88;;;10.30;;
60714;SDS011;46564;53.096;8.246;2023-07-22T21:16:10;17.60;;;11.57;;
60714;SDS011;46564;53.096;8.246;2023-07-22T21:21:12;18.58;;;11.05;;
60714;SDS011;46564;53.096;8.246;2023-07-22T21:26:14;19.63;;;11.77;;
60714;SDS011;46564;53.096;8.246;2023-07-22T21:31:16;20.75;;;11.20;;
60714;SDS011;46564;53.096;8.246;2023-07-22T21:36:17;19.50;;;11.65;;
60714;SDS011;46564;53.096;8.246;2023-07-22T21:41:19;22.50;;;12.40;;
60714;SDS011;46564;53.096;8.246;2023-07-22T21:46:20;20.38;;;11.65;;
60714;SDS011;46564;53.096;8.246;2023-07-22T21:51:22;19.30;;;10.93;;
60714;SDS011;46564;53.096;8.246;2023-07-22T21:56:23;20.67;;;12.13;;
60714;SDS011;46564;53.096;8.246;2023-07-22T22:01:25;21.13;;;11.00;;
60714;SDS011;46564;53.096;8.246;2023-07-22T22:06:27;20.10;;;11.40;;
60714;SDS011;46564;53.096;8.246;2023-07-22T22:11:28;22.73;;;12.80;;
60714;SDS011;46564;53.096;8.246;2023-07-22T22:16:30;20.77;;;12.07;;
60714;SDS011;46564;53.096;8.246;2023-07-22T22:21:32;18.35;;;11.85;;
60714;SDS011;46564;53.096;8.246;2023-07-22T22:26:33;21.50;;;12.85;;
60714;SDS011;46564;53.096;8.246;2023-07-22T22:31:35;20.17;;;12.43;;
60714;SDS011;46564;53.096;8.246;2023-07-22T22:36:36;24.48;;;13.23;;
60714;SDS011;46564;53.096;8.246;2023-07-22T22:41:38;22.05;;;12.65;;
60714;SDS011;46564;53.096;8.246;2023-07-22T22:46:39;24.00;;;13.10;;
60714;SDS011;46564;53.096;8.246;2023-07-22T22:51:41;21.45;;;13.05;;
60714;SDS011;46564;53.096;8.246;2023-07-22T22:56:42;21.70;;;12.65;;
60714;SDS011;46564;53.096;8.246;2023-07-22T23:01:44;20.27;;;12.00;;
60714;SDS011;46564;53.096;8.246;2023-07-22T23:06:46;22.08;;;12.82;;
60714;SDS011;46564;53.096;8.246;2023-07-22T23:11:47;19.70;;;11.18;;
60714;SDS011;46564;53.096;8.246;2023-07-22T23:16:49;23.45;;;12.07;;
60714;SDS011;46564;53.096;8.246;2023-07-22T23:21:53;22.00;;;10.90;;
60714;SDS011;46564;53.096;8.246;2023-07-22T23:26:55;20.65;;;11.45;;
60714;SDS011;46564;53.096;8.246;2023-07-22T23:31:56;20.30;;;10.82;;
60714;SDS011;46564;53.096;8.246;2023-07-22T23:36:58;18.42;;;10.82;;
60714;SDS011;46564;53.096;8.246;2023-07-22T23:41:59;20.45;;;10.95;;
60714;SDS011;46564;53.096;8.246;2023-07-22T23:47:01;16.90;;;10.15;;
60714;SDS011;46564;53.096;8.246;2023-07-22T23:52:02;23.70;;;11.25;;
60714;SDS011;46564;53.096;8.246;2023-07-22T23:57:04;19.60;;;10.05;;
